Time;durP1;ratioP1;P1;durP2;ratioP2;P2;SDS_P1;SDS_P2;PMS_P1;PMS_P2;Temp;Humidity;BMP_temperature;BMP_pressure;BME280_temperature;BME280_humidity;BME280_pressure;Samples;Min_cycle;Max_cycle;Signal;HPM_P1;HPM_P2
2023/03/14 00:01:08;;;;;;;1999.90;999.90;;;12.80;99.90;;;;;;5054889;28;20454;-67
2023/03/14 00:03:34;;;;;;;1999.90;999.90;;;12.70;99.90;;;;;;5054745;28;20190;-67
2023/03/14 00:06:04;;;;;;;1999.90;999.90;;;12.70;99.90;;;;;;5054761;28;20904;-67
2023/03/14 00:08:30;;;;;;;1999.90;999.90;;;12.50;99.90;;;;;;5054660;28;20183;-68
2023/03/14 00:10:57;;;;;;;1999.90;999.90;;;12.70;99.90;;;;;;5054896;28;20429;-68
2023/03/14 00:13:23;;;;;;;1999.90;999.90;;;12.70;99.90;;;;;;5054565;28;20172;-67
2023/03/14 00:15:48;;;;;;;1999.90;999.90;;;12.70;99.90;;;;;;5054710;28;20403;-68
2023/03/14 00:18:14;;;;;;;1999.90;999.90;;;12.90;99.90;;;;;;5054578;28;20416;-68
2023/03/14 00:20:40;;;;;;;1999.90;999.90;;;12.70;99.90;;;;;;5054416;28;20229;-68
2023/03/14 00:23:05;;;;;;;1999.90;999.90;;;12.70;99.90;;;;;;5054431;28;20704;-68
2023/03/14 00:25:31;;;;;;;1999.90;999.90;;;12.70;99.90;;;;;;5053368;28;20163;-69
2023/03/14 00:27:56;;;;;;;1999.90;999.90;;;12.70;99.90;;;;;;5054488;28;20200;-68
2023/03/14 00:30:22;;;;;;;1999.90;999.90;;;12.70;99.90;;;;;;5054456;28;20223;-68
2023/03/14 00:32:47;;;;;;;1999.90;999.90;;;12.80;99.90;;;;;;5054245;28;20176;-68
2023/03/14 00:35:13;;;;;;;1999.90;999.90;;;12.80;99.90;;;;;;5054391;28;20198;-68
2023/03/14 00:37:39;;;;;;;1999.90;999.90;;;12.80;99.90;;;;;;5054498;28;20657;-68
2023/03/14 00:40:06;;;;;;;1999.90;999.90;;;12.80;99.90;;;;;;5054375;28;20236;-69
2023/03/14 00:42:32;;;;;;;1999.90;999.90;;;12.70;99.90;;;;;;5054066;28;20209;-68
2023/03/14 00:44:57;;;;;;;1999.90;999.90;;;12.60;99.90;;;;;;5054558;28;20413;-69
2023/03/14 00:47:23;;;;;;;1999.90;999.90;;;12.30;99.90;;;;;;5054094;28;20177;-69
2023/03/14 00:49:48;;;;;;;1999.90;999.90;;;11.70;99.90;;;;;;5053970;28;20266;-69
2023/03/14 00:52:14;;;;;;;1999.90;999.90;;;11.00;99.90;;;;;;5053995;28;20261;-68
2023/03/14 00:54:40;;;;;;;1999.90;999.90;;;10.60;99.90;;;;;;5054000;28;20173;-68
2023/03/14 00:57:05;;;;;;;1999.90;999.90;;;10.10;99.90;;;;;;5054299;28;20178;-69
2023/03/14 00:59:31;;;;;;;1999.90;999.90;;;9.90;99.90;;;;;;5053810;28;20263;-69
2023/03/14 01:01:56;;;;;;;1999.90;999.90;;;9.90;99.90;;;;;;5053637;28;20199;-70
2023/03/14 01:04:22;;;;;;;1999.90;999.90;;;9.60;99.90;;;;;;5045752;28;20180;-70
2023/03/14 01:06:47;;;;;;;1999.90;999.90;;;9.50;99.90;;;;;;5033900;28;20250;-70
2023/03/14 01:09:13;;;;;;;1999.90;999.90;;;9.50;99.90;;;;;;5033652;28;20206;-70
2023/03/14 01:11:39;;;;;;;1999.90;999.90;;;9.50;99.90;;;;;;5033851;28;20553;-70
2023/03/14 01:14:05;;;;;;;1999.90;999.90;;;9.40;99.90;;;;;;5033657;28;20312;-70
2023/03/14 01:16:33;;;;;;;1999.90;999.90;;;9.40;99.90;;;;;;5033643;28;20171;-70
2023/03/14 01:18:59;;;;;;;1999.90;999.90;;;9.50;99.90;;;;;;5033460;28;20446;-69
2023/03/14 01:21:31;;;;;;;1999.90;999.90;;;9.40;99.90;;;;;;5033407;28;20462;-70
2023/03/14 01:23:58;;;;;;;1999.90;999.90;;;9.50;99.90;;;;;;5033356;28;20178;-70
2023/03/14 01:26:26;;;;;;;1999.90;999.90;;;9.60;99.90;;;;;;5033397;28;20489;-70
2023/03/14 01:28:53;;;;;;;1999.90;999.90;;;9.60;99.90;;;;;;5033348;28;20435;-69
2023/03/14 01:31:19;;;;;;;1999.90;999.90;;;9.70;99.90;;;;;;5033483;28;20406;-70
2023/03/14 01:33:46;;;;;;;1999.90;999.90;;;9.80;99.90;;;;;;5033198;28;20896;-69
2023/03/14 01:36:11;;;;;;;1999.90;999.90;;;9.80;99.90;;;;;;5033155;28;20180;-69
2023/03/14 01:38:39;;;;;;;1999.90;999.90;;;9.90;99.90;;;;;;5033107;28;20441;-69
2023/03/14 01:41:07;;;;;;;1999.90;999.90;;;10.00;99.90;;;;;;5033225;28;20234;-69
2023/03/14 01:43:32;;;;;;;1999.90;999.90;;;10.00;99.90;;;;;;5032970;28;20447;-69
2023/03/14 01:46:01;;;;;;;1999.90;999.90;;;10.00;99.90;;;;;;5032953;28;20410;-69
2023/03/14 01:48:31;;;;;;;1999.90;999.90;;;9.80;99.90;;;;;;5032966;28;20222;-69
2023/03/14 01:50:59;;;;;;;1999.90;999.90;;;10.00;99.90;;;;;;5032955;28;20456;-69
2023/03/14 01:53:25;;;;;;;1999.90;999.90;;;10.00;99.90;;;;;;5032828;28;20405;-69
2023/03/14 01:55:56;;;;;;;1999.90;999.90;;;10.00;99.90;;;;;;5032787;28;20499;-69
2023/03/14 01:58:24;;;;;;;1999.90;999.90;;;10.00;99.90;;;;;;5032796;28;20173;-69
2023/03/14 02:00:49;;;;;;;1999.90;999.90;;;10.10;99.90;;;;;;5032740;28;20415;-69
2023/03/14 02:03:17;;;;;;;1999.90;999.90;;;10.00;99.90;;;;;;5032671;28;20417;-69
2023/03/14 02:05:44;;;;;;;1999.90;999.90;;;10.00;99.90;;;;;;5032669;28;20177;-72
2023/03/14 02:08:19;;;;;;;1999.90;999.90;;;10.00;99.90;;;;;;5032625;28;20398;-69
2023/03/14 02:10:47;;;;;;;1999.90;999.90;;;10.00;99.90;;;;;;5032737;28;20768;-72
2023/03/14 02:13:15;;;;;;;1999.90;999.90;;;10.00;99.90;;;;;;5032428;28;20407;-70
2023/03/14 02:15:41;;;;;;;1999.90;999.90;;;9.90;99.90;;;;;;5032552;28;20395;-71
2023/03/14 02:18:08;;;;;;;1999.90;999.90;;;10.00;99.90;;;;;;5032484;28;20891;-70
2023/03/14 02:21:19;;;;;;;1999.90;999.90;;;9.80;99.90;;;;;;5032389;28;20461;-69
2023/03/14 02:24:11;;;;;;;1999.90;999.90;;;9.90;99.90;;;;;;5027305;28;20482;-69
2023/03/14 02:26:43;;;;;;;1999.90;999.90;;;9.90;99.90;;;;;;5032318;28;20403;-69
2023/03/14 02:29:09;;;;;;;1999.90;999.90;;;10.10;99.90;;;;;;5032366;28;20422;-69
2023/03/14 02:31:35;;;;;;;1999.90;999.90;;;9.90;99.90;;;;;;5032282;28;20407;-69
2023/03/14 02:34:02;;;;;;;1999.90;999.90;;;10.10;99.90;;;;;;5031943;28;20676;-69
2023/03/14 02:36:29;;;;;;;1999.90;999.90;;;9.90;99.90;;;;;;5032135;28;20745;-69
2023/03/14 02:39:12;;;;;;;1999.90;999.90;;;10.00;99.90;;;;;;5032169;28;20448;-69
2023/03/14 02:41:37;;;;;;;1999.90;999.90;;;10.00;99.90;;;;;;5032153;28;20476;-69
2023/03/14 02:44:03;;;;;;;1999.90;999.90;;;9.90;99.90;;;;;;5031994;28;20911;-69
2023/03/14 02:46:29;;;;;;;1999.90;999.90;;;10.00;99.90;;;;;;5032032;28;20191;-69
2023/03/14 02:49:07;;;;;;;1999.90;999.90;;;10.00;99.90;;;;;;5031294;28;20183;-69
2023/03/14 02:51:34;;;;;;;1999.90;999.90;;;10.10;99.90;;;;;;5032101;28;20403;-69
2023/03/14 02:53:59;;;;;;;1999.90;999.90;;;10.20;99.90;;;;;;5031875;28;20403;-69
2023/03/14 02:56:25;;;;;;;1999.90;999.90;;;10.20;99.90;;;;;;5031988;28;20413;-69
2023/03/14 02:58:50;;;;;;;1999.90;999.90;;;10.50;99.90;;;;;;5031825;28;20199;-69
2023/03/14 03:01:16;;;;;;;1999.90;999.90;;;10.30;99.90;;;;;;5031812;28;20287;-69
2023/03/14 03:03:42;;;;;;;1999.90;999.90;;;10.30;99.90;;;;;;5031667;28;20222;-70
2023/03/14 03:06:07;;;;;;;1999.90;999.90;;;10.30;99.90;;;;;;5031794;28;20168;-69
2023/03/14 03:08:33;;;;;;;1999.90;999.90;;;10.30;99.90;;;;;;5031791;28;20258;-69
2023/03/14 03:10:59;;;;;;;1999.90;999.90;;;10.40;99.90;;;;;;5031808;28;20179;-69
2023/03/14 03:13:25;;;;;;;1999.90;999.90;;;10.40;99.90;;;;;;5031687;28;20172;-69
2023/03/14 03:15:50;;;;;;;1999.90;999.90;;;10.50;99.90;;;;;;5031640;28;20676;-70
2023/03/14 03:18:16;;;;;;;1999.90;999.90;;;10.70;99.90;;;;;;5031684;28;20453;-69
2023/03/14 03:20:41;;;;;;;1999.90;999.90;;;10.50;99.90;;;;;;5031779;28;20650;-69
2023/03/14 03:23:07;;;;;;;1999.90;999.90;;;10.50;99.90;;;;;;5031491;28;20203;-69
2023/03/14 03:25:33;;;;;;;1999.90;999.90;;;10.60;99.90;;;;;;5031748;28;20545;-69
2023/03/14 03:27:59;;;;;;;1999.90;999.90;;;10.60;99.90;;;;;;5031539;28;20172;-69
2023/03/14 03:30:24;;;;;;;1999.90;999.90;;;10.60;99.90;;;;;;5031525;28;20200;-69
2023/03/14 03:32:50;;;;;;;1999.90;999.90;;;10.50;99.90;;;;;;5031363;28;20256;-70
2023/03/14 03:35:16;;;;;;;1999.90;999.90;;;10.50;99.90;;;;;;5031673;28;20187;-69
2023/03/14 03:37:41;;;;;;;1999.90;999.90;;;10.40;99.90;;;;;;5031536;28;20646;-71
2023/03/14 03:40:08;;;;;;;1999.90;999.90;;;10.50;99.90;;;;;;5031546;28;20282;-70
2023/03/14 03:42:34;;;;;;;1999.90;999.90;;;10.50;99.90;;;;;;5031283;28;20222;-71
2023/03/14 03:45:02;;;;;;;1999.90;999.90;;;10.60;99.90;;;;;;5031648;28;20399;-71
2023/03/14 03:47:30;;;;;;;1999.90;999.90;;;10.70;99.90;;;;;;5031345;28;20435;-71
2023/03/14 03:49:56;;;;;;;1999.90;999.90;;;10.60;99.90;;;;;;5031403;28;20498;-71
2023/03/14 03:52:22;;;;;;;1999.90;999.90;;;10.60;99.90;;;;;;5031311;28;20820;-71
2023/03/14 03:54:47;;;;;;;1999.90;999.90;;;10.60;99.90;;;;;;5031519;28;20175;-71
2023/03/14 03:57:13;;;;;;;1999.90;999.90;;;10.50;99.90;;;;;;5031381;28;20214;-71
2023/03/14 03:59:40;;;;;;;1999.90;999.90;;;10.60;99.90;;;;;;5031618;28;20211;-71
2023/03/14 04:02:05;;;;;;;1999.90;999.90;;;10.40;99.90;;;;;;5034880;28;20231;-71
2023/03/14 04:04:31;;;;;;;1999.90;999.90;;;10.30;99.90;;;;;;5035076;28;20398;-70
2023/03/14 04:06:57;;;;;;;1999.90;999.90;;;10.40;99.90;;;;;;5034915;28;20172;-71
2023/03/14 04:09:22;;;;;;;1999.90;999.90;;;10.40;99.90;;;;;;5034815;28;20211;-70
2023/03/14 04:11:48;;;;;;;1999.90;999.90;;;10.30;99.90;;;;;;5034674;28;20258;-69
2023/03/14 04:14:13;;;;;;;1999.90;999.90;;;10.40;99.90;;;;;;5034870;28;20171;-69
2023/03/14 04:16:39;;;;;;;1999.90;999.90;;;10.30;99.90;;;;;;5034857;28;20668;-69
2023/03/14 04:19:05;;;;;;;1999.90;999.90;;;10.20;99.90;;;;;;5034701;28;20188;-69
2023/03/14 04:21:30;;;;;;;1999.90;999.90;;;10.30;99.90;;;;;;5034706;28;20198;-69
2023/03/14 04:23:56;;;;;;;1999.90;999.90;;;10.30;99.90;;;;;;5034504;28;20200;-69
2023/03/14 04:26:21;;;;;;;1999.90;999.90;;;10.40;99.90;;;;;;5034522;28;20168;-69
2023/03/14 04:28:47;;;;;;;1999.90;999.90;;;10.40;99.90;;;;;;5034571;28;20234;-69
2023/03/14 04:31:19;;;;;;;1999.90;999.90;;;10.50;99.90;;;;;;5034522;28;20187;-69
2023/03/14 04:33:45;;;;;;;1999.90;999.90;;;10.30;99.90;;;;;;5034516;28;20179;-69
2023/03/14 04:36:11;;;;;;;1999.90;999.90;;;10.30;99.90;;;;;;5034403;28;20406;-69
2023/03/14 04:38:37;;;;;;;1999.90;999.90;;;10.30;99.90;;;;;;5034426;28;20430;-69
2023/03/14 04:41:03;;;;;;;1999.90;999.90;;;10.50;99.90;;;;;;5034189;28;20780;-69
2023/03/14 04:43:29;;;;;;;1999.90;999.90;;;10.40;99.90;;;;;;5034123;28;20644;-69
2023/03/14 04:45:56;;;;;;;1999.90;999.90;;;10.30;99.90;;;;;;5034092;28;20453;-70
2023/03/14 04:48:22;;;;;;;1999.90;999.90;;;10.30;99.90;;;;;;5034147;28;20549;-69
2023/03/14 04:50:48;;;;;;;1999.90;999.90;;;10.20;99.90;;;;;;5034363;28;21110;-69
2023/03/14 04:53:14;;;;;;;1999.90;999.90;;;10.10;99.90;;;;;;5033930;28;20267;-70
2023/03/14 04:55:40;;;;;;;1999.90;999.90;;;10.20;99.90;;;;;;5034022;28;20248;-70
2023/03/14 04:58:06;;;;;;;1999.90;999.90;;;10.30;99.90;;;;;;5033961;28;20545;-70
2023/03/14 05:00:32;;;;;;;1999.90;999.90;;;10.30;99.90;;;;;;5034019;28;20442;-69
2023/03/14 05:02:57;;;;;;;1999.90;999.90;;;10.30;99.90;;;;;;5033692;28;20203;-70
2023/03/14 05:05:23;;;;;;;1999.90;999.90;;;10.30;99.90;;;;;;5033898;28;20626;-69
2023/03/14 05:07:49;;;;;;;1999.90;999.90;;;10.50;99.90;;;;;;5033799;28;20178;-69
2023/03/14 05:10:15;;;;;;;1999.90;999.90;;;10.40;99.90;;;;;;5033662;28;20864;-69
2023/03/14 05:12:41;;;;;;;1999.90;999.90;;;10.40;99.90;;;;;;5032959;28;20176;-69
2023/03/14 05:15:07;;;;;;;1999.90;999.90;;;10.40;99.90;;;;;;5033686;28;20417;-70
2023/03/14 05:17:33;;;;;;;1999.90;999.90;;;10.40;99.90;;;;;;5033500;28;20295;-69
2023/03/14 05:19:59;;;;;;;1999.90;999.90;;;10.50;99.90;;;;;;5033517;28;20427;-69
2023/03/14 05:22:25;;;;;;;1999.90;999.90;;;10.50;99.90;;;;;;5033358;28;20454;-70
2023/03/14 05:24:50;;;;;;;1999.90;999.90;;;10.40;99.90;;;;;;5033550;28;20196;-70
2023/03/14 05:27:16;;;;;;;1999.90;999.90;;;10.40;99.90;;;;;;5033367;28;20419;-70
2023/03/14 05:29:42;;;;;;;1999.90;999.90;;;10.30;99.90;;;;;;5033337;28;20184;-69
2023/03/14 05:32:07;;;;;;;1999.90;999.90;;;10.30;99.90;;;;;;5033197;28;20179;-71
2023/03/14 05:34:33;;;;;;;1999.90;999.90;;;10.30;99.90;;;;;;5033365;28;20172;-71
2023/03/14 05:36:59;;;;;;;1999.90;999.90;;;10.30;99.90;;;;;;5033237;28;20681;-71
2023/03/14 05:39:24;;;;;;;1999.90;999.90;;;10.30;99.90;;;;;;5033129;28;20206;-71
2023/03/14 05:41:50;;;;;;;1999.90;999.90;;;10.40;99.90;;;;;;5033034;28;20658;-71
2023/03/14 05:44:16;;;;;;;1999.90;999.90;;;10.40;99.90;;;;;;5033060;28;20659;-72
2023/03/14 05:46:42;;;;;;;1999.90;999.90;;;10.30;99.90;;;;;;5033026;28;20417;-72
2023/03/14 05:49:07;;;;;;;1999.90;999.90;;;10.30;99.90;;;;;;5033108;28;20199;-72
2023/03/14 05:51:33;;;;;;;1999.90;999.90;;;10.40;99.90;;;;;;5033103;28;20172;-72
2023/03/14 05:53:59;;;;;;;1999.90;999.90;;;10.10;99.90;;;;;;5032777;28;20172;-68
2023/03/14 05:56:24;;;;;;;1999.90;999.90;;;10.10;99.90;;;;;;5032842;28;20228;-71
2023/03/14 05:58:50;;;;;;;1999.90;999.90;;;9.90;99.90;;;;;;5032717;28;20668;-72
2023/03/14 06:01:15;;;;;;;1999.90;999.90;;;10.00;99.90;;;;;;5032791;28;20193;-69
2023/03/14 06:03:41;;;;;;;1999.90;999.90;;;9.90;99.90;;;;;;5032766;28;20171;-69
2023/03/14 06:06:07;;;;;;;1999.90;999.90;;;9.90;99.90;;;;;;5032854;28;20567;-71
2023/03/14 06:08:32;;;;;;;1999.90;999.90;;;10.00;99.90;;;;;;5032437;28;20184;-69
2023/03/14 06:10:58;;;;;;;1999.90;999.90;;;10.00;99.90;;;;;;5032939;28;20170;-69
2023/03/14 06:13:24;;;;;;;1999.90;999.90;;;10.00;99.90;;;;;;5032570;28;20202;-70
2023/03/14 06:15:49;;;;;;;1999.90;999.90;;;10.00;99.90;;;;;;5032590;28;20656;-69
2023/03/14 06:18:15;;;;;;;1999.90;999.90;;;10.00;99.90;;;;;;5032443;28;20164;-69
2023/03/14 06:20:40;;;;;;;1999.90;999.90;;;10.10;99.90;;;;;;5032609;28;20163;-71
2023/03/14 06:23:07;;;;;;;1999.90;999.90;;;10.20;99.90;;;;;;5031695;28;20196;-69
2023/03/14 06:25:34;;;;;;;1999.90;999.90;;;10.40;99.90;;;;;;5032073;28;20265;-69
2023/03/14 06:28:00;;;;;;;1999.90;999.90;;;10.30;99.90;;;;;;5032383;28;20407;-69
2023/03/14 06:30:25;;;;;;;1999.90;999.90;;;10.30;99.90;;;;;;5032260;28;20445;-69
2023/03/14 06:32:51;;;;;;;1999.90;999.90;;;10.40;99.90;;;;;;5032070;28;20409;-70
2023/03/14 06:35:17;;;;;;;1999.90;999.90;;;10.50;99.90;;;;;;5032272;28;20183;-69
2023/03/14 06:37:43;;;;;;;1999.90;999.90;;;10.50;99.90;;;;;;5032158;28;20237;-69
2023/03/14 06:40:10;;;;;;;1999.90;999.90;;;10.60;99.90;;;;;;5032303;28;20541;-69
2023/03/14 06:42:36;;;;;;;1999.90;999.90;;;10.60;99.90;;;;;;5031958;28;20816;-70
2023/03/14 06:45:02;;;;;;;1999.90;999.90;;;10.60;99.90;;;;;;5032132;28;20417;-69
2023/03/14 06:47:28;;;;;;;1999.90;999.90;;;10.60;99.90;;;;;;5032101;28;20664;-69
2023/03/14 06:49:54;;;;;;;1999.90;999.90;;;10.70;99.90;;;;;;5031951;28;20473;-69
2023/03/14 06:52:19;;;;;;;1999.90;999.90;;;10.70;99.90;;;;;;5031866;28;20630;-71
2023/03/14 06:54:45;;;;;;;1999.90;999.90;;;10.70;99.90;;;;;;5032021;28;20176;-69
2023/03/14 06:57:10;;;;;;;1999.90;999.90;;;10.70;99.90;;;;;;5032335;28;20164;-69
2023/03/14 06:59:36;;;;;;;1999.90;999.90;;;10.80;99.90;;;;;;5031795;28;20189;-69
2023/03/14 07:02:01;;;;;;;1999.90;999.90;;;10.80;99.90;;;;;;5031680;28;20254;-69
2023/03/14 07:04:27;;;;;;;1999.90;999.90;;;10.90;99.90;;;;;;5031891;28;20199;-69
2023/03/14 07:06:52;;;;;;;1999.90;999.90;;;11.00;99.90;;;;;;5031791;28;20179;-70
2023/03/14 07:09:18;;;;;;;1999.90;999.90;;;10.90;99.90;;;;;;5031748;28;20203;-70
2023/03/14 07:11:44;;;;;;;1999.90;999.90;;;11.00;99.90;;;;;;5031675;28;20653;-70
2023/03/14 07:14:10;;;;;;;1999.90;999.90;;;11.00;99.90;;;;;;5031816;28;20176;-69
2023/03/14 07:16:35;;;;;;;1999.90;999.90;;;11.00;99.90;;;;;;5031723;28;20173;-70
2023/03/14 07:19:02;;;;;;;1999.90;999.90;;;11.00;99.90;;;;;;5031696;28;20426;-70
2023/03/14 07:21:28;;;;;;;1999.90;999.90;;;11.00;99.90;;;;;;5031634;28;20211;-69
2023/03/14 07:23:53;;;;;;;1999.90;999.90;;;11.10;99.90;;;;;;5031581;28;20525;-69
2023/03/14 07:26:19;;;;;;;1999.90;999.90;;;11.10;99.90;;;;;;5031828;28;20180;-69
2023/03/14 07:28:44;;;;;;;1999.90;999.90;;;11.10;99.90;;;;;;5031615;28;20228;-69
2023/03/14 07:31:10;;;;;;;1999.90;999.90;;;11.20;99.90;;;;;;5031678;28;20197;-72
2023/03/14 07:33:36;;;;;;;1999.90;999.90;;;11.20;99.90;;;;;;5031471;28;20180;-69
2023/03/14 07:36:01;;;;;;;1999.90;999.90;;;11.20;99.90;;;;;;5034050;28;20610;-69
2023/03/14 07:38:27;;;;;;;1999.90;999.90;;;11.30;99.90;;;;;;5035504;28;20164;-69
2023/03/14 07:41:01;;;;;;;1999.90;999.90;;;11.30;99.90;;;;;;5035495;28;20414;-69
2023/03/14 07:43:26;;;;;;;1999.90;999.90;;;11.30;99.90;;;;;;5035336;28;20211;-69
2023/03/14 07:45:52;;;;;;;1999.90;999.90;;;11.20;99.90;;;;;;5035339;28;20400;-69
2023/03/14 07:48:18;;;;;;;1999.90;999.90;;;10.90;99.90;;;;;;5035273;28;20403;-69
2023/03/14 07:50:43;;;;;;;1999.90;999.90;;;11.10;99.90;;;;;;5035338;28;20180;-69
2023/03/14 07:53:09;;;;;;;1999.90;999.90;;;11.10;99.90;;;;;;5035114;28;20168;-69
2023/03/14 07:55:35;;;;;;;1999.90;999.90;;;11.20;99.90;;;;;;5035169;28;20183;-69
2023/03/14 07:58:01;;;;;;;1999.90;999.90;;;11.20;99.90;;;;;;5035169;28;20546;-69
2023/03/14 08:00:27;;;;;;;1999.90;999.90;;;11.30;99.90;;;;;;5035143;28;20206;-69
2023/03/14 08:02:52;;;;;;;1999.90;999.90;;;11.30;99.90;;;;;;5034842;28;20480;-69
2023/03/14 08:05:18;;;;;;;1999.90;999.90;;;11.30;99.90;;;;;;5035115;28;20466;-69
2023/03/14 08:07:43;;;;;;;1999.90;999.90;;;11.30;99.90;;;;;;5034946;28;20172;-69
2023/03/14 08:10:10;;;;;;;1999.90;999.90;;;11.40;99.90;;;;;;5034819;28;20361;-69
2023/03/14 08:12:35;;;;;;;1999.90;999.90;;;11.40;99.90;;;;;;5034587;28;20266;-69
2023/03/14 08:15:02;;;;;;;1999.90;999.90;;;11.50;99.90;;;;;;5034900;28;20550;-69
2023/03/14 08:17:27;;;;;;;1999.90;999.90;;;11.50;99.90;;;;;;5034764;28;20546;-69
2023/03/14 08:19:53;;;;;;;1999.90;999.90;;;11.50;99.90;;;;;;5034950;28;20962;-70
2023/03/14 08:22:18;;;;;;;1999.90;999.90;;;11.40;99.90;;;;;;5034511;28;20208;-71
2023/03/14 08:24:44;;;;;;;1999.90;999.90;;;11.50;99.90;;;;;;5034676;28;20169;-70
2023/03/14 08:27:09;;;;;;;1999.90;999.90;;;11.40;99.90;;;;;;5034608;28;20714;-69
2023/03/14 08:29:35;;;;;;;1999.90;999.90;;;11.50;99.90;;;;;;5034513;28;20523;-71
2023/03/14 08:32:01;;;;;;;1999.90;999.90;;;11.40;99.90;;;;;;5034414;28;20180;-71
2023/03/14 08:34:26;;;;;;;1999.90;999.90;;;11.40;99.90;;;;;;5034500;28;20175;-71
2023/03/14 08:36:52;;;;;;;1999.90;999.90;;;11.40;99.90;;;;;;5034320;28;20169;-71
2023/03/14 08:39:17;;;;;;;1999.90;999.90;;;11.30;99.90;;;;;;5034405;28;20192;-69
2023/03/14 08:41:44;;;;;;;1999.90;999.90;;;11.20;99.90;;;;;;5034084;28;20188;-68
2023/03/14 08:44:11;;;;;;;1999.90;999.90;;;11.10;99.90;;;;;;5034408;28;20169;-72
2023/03/14 08:46:37;;;;;;;1999.90;999.90;;;11.00;99.90;;;;;;5033149;28;20413;-72
2023/03/14 08:49:03;;;;;;;1999.90;999.90;;;10.90;99.90;;;;;;5034077;28;20426;-72
2023/03/14 08:51:28;;;;;;;1999.90;999.90;;;10.90;99.90;;;;;;5034187;28;20422;-71
2023/03/14 08:53:54;;;;;;;1999.90;999.90;;;10.80;99.90;;;;;;5034036;28;20175;-72
2023/03/14 08:56:19;;;;;;;1999.90;999.90;;;10.80;99.90;;;;;;5033998;28;20177;-72
2023/03/14 08:58:45;;;;;;;1999.90;999.90;;;10.80;99.90;;;;;;5033900;28;20269;-72
2023/03/14 09:01:11;;;;;;;1999.90;999.90;;;10.80;99.90;;;;;;5033956;28;20168;-71
2023/03/14 09:03:37;;;;;;;1999.90;999.90;;;10.70;99.90;;;;;;5033748;28;20169;-70
2023/03/14 09:06:07;;;;;;;1999.90;999.90;;;10.70;99.90;;;;;;5033868;28;20183;-72
2023/03/14 09:08:33;;;;;;;1999.90;999.90;;;11.10;99.90;;;;;;5033682;28;20426;-69
2023/03/14 09:10:59;;;;;;;1999.90;999.90;;;10.60;99.90;;;;;;5033766;28;20416;-70
2023/03/14 09:13:24;;;;;;;1999.90;999.90;;;10.70;99.90;;;;;;5033629;28;20406;-69
2023/03/14 09:15:55;;;;;;;1999.90;999.90;;;10.60;99.90;;;;;;5033622;28;20168;-72
2023/03/14 09:18:20;;;;;;;1999.90;999.90;;;10.10;99.90;;;;;;5033721;28;20252;-71
2023/03/14 09:20:46;;;;;;;1999.90;999.90;;;10.10;99.90;;;;;;5033663;28;20411;-71
2023/03/14 09:23:12;;;;;;;1999.90;999.90;;;9.30;99.90;;;;;;5033364;28;20207;-70
2023/03/14 09:25:37;;;;;;;1999.90;999.90;;;9.00;99.90;;;;;;5033458;28;20175;-70
2023/03/14 09:28:04;;;;;;;1999.90;999.90;;;8.50;99.90;;;;;;5033486;28;20169;-69
2023/03/14 09:30:29;;;;;;;1999.90;999.90;;;8.30;99.90;;;;;;5033285;28;20303;-69
2023/03/14 09:32:55;;;;;;;1999.90;999.90;;;8.20;99.90;;;;;;5033314;28;20494;-70
2023/03/14 09:35:20;;;;;;;1999.90;999.90;;;8.10;99.90;;;;;;5033620;28;20548;-71
2023/03/14 09:37:46;;;;;;;1999.90;999.90;;;8.00;99.90;;;;;;5033389;28;20178;-71
2023/03/14 09:40:20;;;;;;;1999.90;999.90;;;8.20;99.90;;;;;;5033118;28;20200;-71
2023/03/14 09:42:49;;;;;;;1999.90;999.90;;;7.90;99.90;;;;;;5032991;28;20207;-72
2023/03/14 09:45:36;;;;;;;1999.90;999.90;;;8.00;99.90;;;;;;5033160;28;20963;-71
2023/03/14 09:48:04;;;;;;;1999.90;999.90;;;8.00;99.90;;;;;;5033006;28;20920;-71
2023/03/14 09:50:41;;;;;;;1999.90;999.90;;;8.00;99.90;;;;;;5032990;28;20477;-71
2023/03/14 09:53:18;;;;;;;1999.90;999.90;;;8.10;99.90;;;;;;5032821;28;20507;-71
2023/03/14 09:55:46;;;;;;;1999.90;999.90;;;8.00;99.90;;;;;;5032971;28;20403;-72
2023/03/14 09:58:15;;;;;;;1999.90;999.90;;;7.90;99.90;;;;;;5032711;28;20412;-72
2023/03/14 10:00:41;;;;;;;1999.90;999.90;;;7.90;99.90;;;;;;5032883;28;20473;-71
2023/03/14 10:03:12;;;;;;;1999.90;999.90;;;7.90;99.90;;;;;;5032621;28;20945;-71
2023/03/14 10:05:39;;;;;;;1999.90;999.90;;;7.90;99.90;;;;;;5032868;28;20221;-72
2023/03/14 10:08:05;;;;;;;1999.90;999.90;;;7.90;99.90;;;;;;5032471;28;20419;-72
2023/03/14 10:10:31;;;;;;;1999.90;999.90;;;7.80;99.90;;;;;;5041701;28;20428;-72
2023/03/14 10:13:01;;;;;;;1999.90;999.90;;;7.90;99.90;;;;;;5052559;28;20406;-72
2023/03/14 10:15:32;;;;;;;1999.90;999.90;;;8.00;99.90;;;;;;5052537;28;20410;-72
2023/03/14 10:18:03;;;;;;;1999.90;999.90;;;8.00;99.90;;;;;;5052203;28;20525;-70
2023/03/14 10:20:42;;;;;;;1999.90;999.90;;;8.00;99.90;;;;;;5048207;28;20953;-71
2023/03/14 10:23:14;;;;;;;1999.90;999.90;;;8.00;99.90;;;;;;5047399;28;20479;-70
2023/03/14 10:25:43;;;;;;;1999.90;999.90;;;8.00;99.90;;;;;;5048145;28;20500;-69
2023/03/14 10:28:45;;;;;;;1999.90;999.90;;;8.10;99.90;;;;;;5049425;28;20910;-70
2023/03/14 10:31:12;;;;;;;1999.90;999.90;;;8.10;99.90;;;;;;5031983;28;20515;-70
2023/03/14 10:33:38;;;;;;;1999.90;999.90;;;8.10;99.90;;;;;;5047346;28;20769;-71
2023/03/14 10:36:23;;;;;;;1999.90;999.90;;;8.10;99.90;;;;;;5048386;28;20497;-71
2023/03/14 10:38:49;;;;;;;1999.90;999.90;;;8.20;99.90;;;;;;5047887;28;20497;-68
2023/03/14 10:41:26;;;;;;;1999.90;999.90;;;8.20;99.90;;;;;;5048476;28;20415;-71
2023/03/14 10:43:56;;;;;;;1999.90;999.90;;;8.10;99.90;;;;;;5048570;28;20169;-70
2023/03/14 10:46:24;;;;;;;1999.90;999.90;;;8.30;99.90;;;;;;5048293;28;20412;-69
2023/03/14 10:48:53;;;;;;;1999.90;999.90;;;8.40;99.90;;;;;;5047101;28;20430;-69
2023/03/14 10:51:29;;;;;;;1999.90;999.90;;;8.40;99.90;;;;;;5047771;28;20415;-71
2023/03/14 10:54:00;;;;;;;1999.90;999.90;;;8.50;99.90;;;;;;5047598;28;20446;-71
2023/03/14 10:56:32;;;;;;;1999.90;999.90;;;8.70;99.90;;;;;;5048047;28;20831;-69
2023/03/14 10:58:59;;;;;;;1999.90;999.90;;;8.60;99.90;;;;;;5047613;28;20422;-69
2023/03/14 11:01:53;;;;;;;1999.90;999.90;;;8.60;99.90;;;;;;5047033;28;20493;-69
2023/03/14 11:04:24;;;;;;;1999.90;999.90;;;8.80;99.90;;;;;;5048010;28;20413;-69
2023/03/14 11:07:06;;;;;;;1999.90;999.90;;;8.90;99.90;;;;;;5047614;28;20558;-69
2023/03/14 11:09:54;;;;;;;1999.90;999.90;;;9.20;99.90;;;;;;5049024;28;20852;-69
2023/03/14 11:12:22;;;;;;;1999.90;999.90;;;9.20;99.90;;;;;;5053640;28;20856;-69
2023/03/14 11:14:55;;;;;;;1999.90;999.90;;;9.10;99.90;;;;;;5054501;28;20410;-70
2023/03/14 11:17:34;;;;;;;1999.90;999.90;;;9.10;99.90;;;;;;5054529;28;20417;-70
2023/03/14 11:20:17;;;;;;;1999.90;999.90;;;9.00;99.90;;;;;;5054421;28;20903;-70
2023/03/14 11:23:05;;;;;;;1999.90;999.90;;;9.00;99.90;;;;;;5053789;28;20460;-67
2023/03/14 11:25:37;;;;;;;1999.90;999.90;;;9.00;99.90;;;;;;5053666;28;20411;-70
2023/03/14 11:28:26;;;;;;;1999.90;999.90;;;9.00;99.90;;;;;;5053511;28;20774;-70
2023/03/14 11:31:02;;;;;;;1999.90;999.90;;;9.00;99.90;;;;;;5053791;28;20404;-69
2023/03/14 11:33:34;;;;;;;1999.90;999.90;;;9.00;99.90;;;;;;5053514;28;20414;-71
2023/03/14 11:36:09;;;;;;;1999.90;999.90;;;8.80;99.90;;;;;;5053498;28;20407;-69
2023/03/14 11:38:45;;;;;;;1999.90;999.90;;;6.80;99.90;;;;;;5053283;28;20402;-70
2023/03/14 11:41:20;;;;;;;1999.90;999.90;;;6.70;99.90;;;;;;5053503;28;20471;-70
2023/03/14 11:43:51;;;;;;;1999.90;999.90;;;6.40;99.90;;;;;;5053252;28;20413;-70
2023/03/14 11:46:32;;;;;;;1999.90;999.90;;;6.30;99.90;;;;;;5053883;28;20409;-68
2023/03/14 11:49:00;;;;;;;1999.90;999.90;;;6.40;99.90;;;;;;5053456;28;20453;-72
2023/03/14 11:51:33;;;;;;;1999.90;999.90;;;6.60;99.90;;;;;;5051819;28;21451;-69
2023/03/14 11:54:16;;;;;;;1999.90;999.90;;;6.70;99.90;;;;;;5051748;28;20430;-70
2023/03/14 11:56:53;;;;;;;1999.90;999.90;;;6.90;99.90;;;;;;5065109;28;20837;-70
2023/03/14 11:59:27;;;;;;;1999.90;999.90;;;7.00;99.90;;;;;;5064288;28;20950;-72
2023/03/14 12:02:00;;;;;;;1999.90;999.90;;;7.00;99.90;;;;;;5067686;28;20475;-75
2023/03/14 12:04:40;;;;;;;1999.90;999.90;;;7.20;99.90;;;;;;5055244;28;20397;-70